createdAt,value
2022-10-29T00:03:10.460Z,100.00
2022-10-29T00:07:13.386Z,100.00
2022-10-29T00:11:21.382Z,100.00
2022-10-29T00:15:23.359Z,100.00
2022-10-29T00:19:26.101Z,100.00
2022-10-29T00:23:28.042Z,100.00
2022-10-29T00:27:30.005Z,100.00
2022-10-29T00:31:32.147Z,100.00
2022-10-29T00:35:34.123Z,100.00
2022-10-29T00:39:36.154Z,100.00
2022-10-29T00:43:38.885Z,100.00
2022-10-29T00:47:50.132Z,100.00
2022-10-29T00:51:53.540Z,100.00
2022-10-29T00:55:55.629Z,100.00
2022-10-29T00:59:57.850Z,100.00
2022-10-29T01:04:00.341Z,100.00
2022-10-29T01:08:03.340Z,100.00
2022-10-29T01:12:14.375Z,100.00
2022-10-29T01:16:34.513Z,100.00
2022-10-29T01:21:01.131Z,100.00
2022-10-29T01:25:21.131Z,100.00
2022-10-29T01:29:57.224Z,100.00
2022-10-29T01:34:05.200Z,100.00
2022-10-29T01:38:11.448Z,100.00
2022-10-29T01:42:36.491Z,100.00
2022-10-29T01:46:41.672Z,100.00
2022-10-29T01:50:48.564Z,100.00
2022-10-29T01:54:51.807Z,100.00
2022-10-29T01:58:59.269Z,100.00
2022-10-29T02:03:23.947Z,100.00
2022-10-29T02:07:28.790Z,100.00
2022-10-29T02:12:03.386Z,100.00
2022-10-29T02:16:07.287Z,100.00
2022-10-29T02:20:12.077Z,100.00
2022-10-29T02:24:14.035Z,100.00
2022-10-29T02:28:16.043Z,100.00
2022-10-29T02:32:18.082Z,100.00
2022-10-29T02:36:20.198Z,100.00
2022-10-29T02:40:22.159Z,100.00
2022-10-29T02:44:24.384Z,100.00
2022-10-29T02:48:26.726Z,100.00
2022-10-29T02:52:28.682Z,100.00
2022-10-29T02:56:30.648Z,100.00
2022-10-29T03:00:32.727Z,100.00
2022-10-29T03:04:35.023Z,100.00
2022-10-29T03:08:37.276Z,100.00
2022-10-29T03:12:39.258Z,100.00
2022-10-29T03:16:41.589Z,100.00
2022-10-29T03:20:45.391Z,100.00
2022-10-29T03:24:48.036Z,100.00
2022-10-29T03:28:50.265Z,100.00
2022-10-29T03:32:53.675Z,100.00
2022-10-29T03:36:55.846Z,100.00
2022-10-29T03:40:58.089Z,100.00
2022-10-29T03:45:02.404Z,100.00
2022-10-29T03:49:05.302Z,100.00
2022-10-29T03:53:09.063Z,100.00
2022-10-29T03:57:11.267Z,100.00
2022-10-29T04:01:13.270Z,100.00
2022-10-29T04:05:15.537Z,100.00
2022-10-29T04:09:17.510Z,100.00
2022-10-29T04:13:20.357Z,100.00
2022-10-29T04:17:22.675Z,100.00
2022-10-29T04:23:40.264Z,100.00
2022-10-29T04:30:19.779Z,100.00
2022-10-29T04:34:22.146Z,100.00
2022-10-29T04:38:24.095Z,100.00
2022-10-29T04:42:26.090Z,100.00
2022-10-29T04:46:28.360Z,100.00
2022-10-29T04:50:32.479Z,100.00
2022-10-29T04:54:34.467Z,100.00
2022-10-29T04:58:36.544Z,100.00
2022-10-29T05:02:38.763Z,100.00
2022-10-29T05:06:41.198Z,100.00
2022-10-29T05:10:43.170Z,100.00
2022-10-29T05:19:29.934Z,100.00
2022-10-29T05:23:31.958Z,100.00
2022-10-29T05:27:33.953Z,100.00
2022-10-29T05:31:35.898Z,100.00
2022-10-29T05:35:38.388Z,100.00
2022-10-29T05:39:40.468Z,100.00
2022-10-29T05:43:42.502Z,100.00
2022-10-29T05:47:44.681Z,100.00
2022-10-29T05:51:46.632Z,100.00
2022-10-29T05:55:48.594Z,100.00
2022-10-29T05:59:51.039Z,100.00
2022-10-29T06:07:57.065Z,100.00
2022-10-29T06:11:59.333Z,100.00
2022-10-29T06:16:01.706Z,100.00
2022-10-29T06:20:04.551Z,100.00
2022-10-29T06:24:06.985Z,100.00
2022-10-29T06:28:15.394Z,100.00
2022-10-29T06:32:17.531Z,100.00
2022-10-29T06:36:19.750Z,100.00
2022-10-29T06:40:22.019Z,100.00
2022-10-29T06:44:24.144Z,100.00
2022-10-29T06:48:26.124Z,100.00
2022-10-29T06:52:28.086Z,100.00
2022-10-29T06:56:30.619Z,100.00
2022-10-29T07:00:34.356Z,100.00
2022-10-29T07:04:36.391Z,100.00
2022-10-29T07:08:38.368Z,100.00
2022-10-29T07:12:41.793Z,100.00
2022-10-29T07:16:44.028Z,100.00
2022-10-29T07:20:46.337Z,100.00
2022-10-29T07:24:48.261Z,100.00
2022-10-29T07:28:50.251Z,100.00
2022-10-29T07:32:52.179Z,100.00
2022-10-29T07:36:54.383Z,100.00
2022-10-29T07:40:56.368Z,100.00
2022-10-29T07:44:58.286Z,100.00
2022-10-29T07:49:01.157Z,100.00
2022-10-29T07:53:04.838Z,100.00
2022-10-29T07:57:06.904Z,100.00
2022-10-29T08:01:08.950Z,100.00
2022-10-29T08:05:11.397Z,100.00
2022-10-29T08:09:13.774Z,100.00
2022-10-29T08:13:15.709Z,100.00
2022-10-29T08:17:17.719Z,100.00
2022-10-29T08:21:19.708Z,100.00
2022-10-29T08:25:21.774Z,100.00
2022-10-29T08:29:23.773Z,100.00
2022-10-29T08:33:25.718Z,100.00
2022-10-29T08:37:28.395Z,100.00
2022-10-29T08:41:34.734Z,100.00
2022-10-29T08:45:48.691Z,100.00
2022-10-29T08:50:02.768Z,100.00
2022-10-29T08:58:45.437Z,100.00
2022-10-29T09:02:47.514Z,100.00
2022-10-29T09:07:47.014Z,100.00
2022-10-29T09:12:17.397Z,100.00
2022-10-29T09:16:43.966Z,100.00
2022-10-29T09:21:04.435Z,100.00
2022-10-29T09:25:21.177Z,100.00
2022-10-29T09:29:52.307Z,100.00
2022-10-29T09:34:00.792Z,100.00
2022-10-29T09:38:12.920Z,100.00
2022-10-29T09:42:20.499Z,100.00
2022-10-29T09:46:51.747Z,100.00
2022-10-29T09:51:22.784Z,100.00
2022-10-29T09:55:28.611Z,100.00
2022-10-29T09:59:56.977Z,100.00
2022-10-29T10:04:06.629Z,100.00
2022-10-29T10:08:13.690Z,100.00
2022-10-29T10:12:16.338Z,100.00
2022-10-29T10:16:24.795Z,100.00
2022-10-29T10:20:29.749Z,100.00
2022-10-29T10:24:36.983Z,100.00
2022-10-29T10:28:38.901Z,100.00
2022-10-29T10:32:40.816Z,100.00
2022-10-29T10:36:46.250Z,100.00
2022-10-29T10:41:04.342Z,100.00
2022-10-29T10:45:16.016Z,96.07
2022-10-29T10:49:24.286Z,100.00
2022-10-29T10:53:26.231Z,100.00
2022-10-29T10:57:36.415Z,99.89
2022-10-29T11:01:43.711Z,100.00
2022-10-29T11:05:58.711Z,92.75
2022-10-29T11:10:05.208Z,97.98
2022-10-29T11:14:15.646Z,95.59
2022-10-29T11:18:48.040Z,90.52
2022-10-29T11:23:01.069Z,94.31
2022-10-29T11:27:22.144Z,92.65
2022-10-29T11:31:36.450Z,89.75
2022-10-29T11:35:46.554Z,67.80
2022-10-29T11:39:59.856Z,86.56
2022-10-29T11:44:01.856Z,93.35
2022-10-29T11:48:11.511Z,85.41
2022-10-29T11:52:17.242Z,88.84
2022-10-29T11:56:22.998Z,85.06
2022-10-29T12:00:27.649Z,87.43
2022-10-29T12:04:57.196Z,78.51
2022-10-29T12:09:31.125Z,76.89
2022-10-29T12:13:41.152Z,84.11
2022-10-29T12:17:52.471Z,83.55
2022-10-29T12:22:06.301Z,80.31
2022-10-29T12:26:20.439Z,75.90
2022-10-29T12:30:24.705Z,80.52
2022-10-29T12:34:48.006Z,66.71
2022-10-29T12:38:55.238Z,76.29
2022-10-29T12:43:04.181Z,73.06
2022-10-29T12:47:21.246Z,72.73
2022-10-29T12:51:41.614Z,73.64
2022-10-29T12:55:46.733Z,75.52
2022-10-29T12:59:49.429Z,76.41
2022-10-29T13:04:02.250Z,75.67
2022-10-29T13:08:04.115Z,75.63
2022-10-29T13:12:11.689Z,73.61
2022-10-29T13:16:20.674Z,70.28
2022-10-29T13:20:33.161Z,74.83
2022-10-29T13:24:35.169Z,76.28
2022-10-29T13:28:37.079Z,76.49
2022-10-29T13:32:39.461Z,75.90
2022-10-29T13:36:41.790Z,75.18
2022-10-29T13:41:22.799Z,63.41
2022-10-29T13:45:25.140Z,71.66
2022-10-29T13:49:46.606Z,62.03
2022-10-29T13:54:16.486Z,63.56
2022-10-29T13:58:33.985Z,61.91
2022-10-29T14:02:57.236Z,62.00
2022-10-29T14:07:00.614Z,68.99
2022-10-29T14:11:20.285Z,60.67
2022-10-29T14:15:22.441Z,68.67
2022-10-29T14:19:24.615Z,67.08
2022-10-29T14:23:28.691Z,67.06
2022-10-29T14:27:30.730Z,67.19
2022-10-29T14:31:32.667Z,67.50
2022-10-29T14:35:34.701Z,67.88
2022-10-29T14:39:58.420Z,59.38
2022-10-29T14:44:04.450Z,64.26
2022-10-29T14:48:16.460Z,63.47
2022-10-29T14:52:42.278Z,60.18
2022-10-29T14:56:44.265Z,65.23
2022-10-29T15:01:05.889Z,58.48
2022-10-29T15:05:23.399Z,54.56
2022-10-29T15:09:28.535Z,62.76
2022-10-29T15:13:34.310Z,63.43
2022-10-29T15:17:49.310Z,57.74
2022-10-29T15:21:51.454Z,64.28
2022-10-29T15:26:11.095Z,61.41
2022-10-29T15:30:22.098Z,65.14
2022-10-29T15:34:36.389Z,69.88
2022-10-29T15:38:52.111Z,82.21
2022-10-29T15:42:55.247Z,87.91
2022-10-29T15:46:59.722Z,93.40
2022-10-29T15:51:01.778Z,97.93
2022-10-29T15:55:09.508Z,100.00
2022-10-29T15:59:14.397Z,100.00
2022-10-29T16:03:27.267Z,100.00
2022-10-29T16:07:29.406Z,100.00
2022-10-29T16:11:31.311Z,100.00
2022-10-29T16:15:33.252Z,100.00
2022-10-29T16:19:35.717Z,100.00
2022-10-29T16:23:38.580Z,100.00
2022-10-29T16:27:40.535Z,100.00
2022-10-29T16:31:43.164Z,100.00
2022-10-29T16:35:45.106Z,100.00
2022-10-29T16:39:47.039Z,100.00
2022-10-29T16:43:49.102Z,100.00
2022-10-29T16:47:52.326Z,100.00
2022-10-29T16:51:54.232Z,100.00
2022-10-29T16:55:56.232Z,100.00
2022-10-29T16:59:58.281Z,100.00
2022-10-29T17:04:00.262Z,100.00
2022-10-29T17:08:02.455Z,100.00
2022-10-29T17:12:04.642Z,100.00
2022-10-29T17:16:11.255Z,100.00
2022-10-29T17:20:13.336Z,100.00
2022-10-29T17:24:15.277Z,100.00
2022-10-29T17:28:17.217Z,100.00
2022-10-29T17:32:19.317Z,100.00
2022-10-29T17:36:21.426Z,100.00
2022-10-29T17:40:24.399Z,100.00
2022-10-29T17:44:46.684Z,100.00
2022-10-29T17:48:48.681Z,100.00
2022-10-29T17:52:53.294Z,100.00
2022-10-29T17:56:55.251Z,100.00
2022-10-29T18:01:04.998Z,100.00
2022-10-29T18:05:07.383Z,100.00
2022-10-29T18:09:09.318Z,100.00
2022-10-29T18:13:11.234Z,100.00
2022-10-29T18:17:13.217Z,100.00
2022-10-29T18:21:18.517Z,100.00
2022-10-29T18:25:27.660Z,100.00
2022-10-29T18:29:33.496Z,100.00
2022-10-29T18:33:35.628Z,100.00
2022-10-29T18:37:37.611Z,100.00
2022-10-29T18:41:40.523Z,100.00
2022-10-29T18:45:42.461Z,100.00
2022-10-29T18:49:44.537Z,100.00
2022-10-29T18:53:47.014Z,100.00
2022-10-29T18:57:49.039Z,100.00
2022-10-29T19:01:51.542Z,100.00
2022-10-29T19:05:53.545Z,100.00
2022-10-29T19:09:55.464Z,100.00
2022-10-29T19:14:00.390Z,100.00
2022-10-29T19:18:02.425Z,100.00
2022-10-29T19:22:04.427Z,100.00
2022-10-29T19:26:12.237Z,100.00
2022-10-29T19:30:14.304Z,100.00
2022-10-29T19:34:16.286Z,100.00
2022-10-29T19:38:18.217Z,100.00
2022-10-29T19:42:20.168Z,100.00
2022-10-29T19:46:25.037Z,100.00
2022-10-29T19:50:26.962Z,100.00
2022-10-29T19:54:28.888Z,100.00
2022-10-29T19:58:33.239Z,100.00
2022-10-29T20:02:35.410Z,100.00
2022-10-29T20:06:37.544Z,100.00
2022-10-29T20:10:39.866Z,100.00
2022-10-29T20:14:41.786Z,100.00
2022-10-29T20:18:44.172Z,100.00
2022-10-29T20:22:50.266Z,100.00
2022-10-29T20:26:52.182Z,100.00
2022-10-29T20:31:14.320Z,100.00
2022-10-29T20:35:17.264Z,100.00
2022-10-29T20:39:20.229Z,100.00
2022-10-29T20:43:22.794Z,100.00
2022-10-29T20:47:24.895Z,100.00
2022-10-29T20:51:27.659Z,100.00
2022-10-29T20:55:29.782Z,100.00
2022-10-29T20:59:31.902Z,100.00
2022-10-29T21:03:34.041Z,100.00
2022-10-29T21:07:36.029Z,100.00
2022-10-29T21:11:38.102Z,100.00
2022-10-29T21:15:40.059Z,100.00
2022-10-29T21:19:41.994Z,100.00
2022-10-29T21:23:44.337Z,100.00
2022-10-29T21:27:46.287Z,100.00
2022-10-29T21:31:49.706Z,100.00
2022-10-29T21:35:55.105Z,100.00
2022-10-29T21:40:00.132Z,100.00
2022-10-29T21:44:05.625Z,100.00
2022-10-29T21:48:07.703Z,100.00
2022-10-29T21:52:09.603Z,100.00
2022-10-29T21:56:13.906Z,100.00
2022-10-29T22:00:16.890Z,100.00
2022-10-29T22:04:18.919Z,100.00
2022-10-29T22:12:27.778Z,100.00
2022-10-29T22:16:29.718Z,100.00
2022-10-29T22:20:31.648Z,100.00
2022-10-29T22:24:33.616Z,100.00
2022-10-29T22:28:35.608Z,100.00
2022-10-29T22:32:37.806Z,100.00
2022-10-29T22:36:39.730Z,100.00
2022-10-29T22:40:41.710Z,100.00
2022-10-29T22:44:43.644Z,100.00
2022-10-29T22:48:46.197Z,100.00
2022-10-29T22:52:48.395Z,100.00
2022-10-29T22:56:50.321Z,100.00
2022-10-29T23:01:04.294Z,100.00
2022-10-29T23:05:06.643Z,100.00
2022-10-29T23:09:08.703Z,100.00
2022-10-29T23:13:10.599Z,100.00
2022-10-29T23:17:20.218Z,100.00
2022-10-29T23:21:22.781Z,100.00
2022-10-29T23:25:25.057Z,100.00
2022-10-29T23:29:27.083Z,100.00
2022-10-29T23:33:30.638Z,100.00
2022-10-29T23:37:32.623Z,100.00
2022-10-29T23:41:34.845Z,100.00
2022-10-29T23:45:37.228Z,100.00
2022-10-29T23:49:39.213Z,100.00
2022-10-29T23:53:41.607Z,100.00
2022-10-29T23:57:43.496Z,100.00
